sensor_id;sensor_type;location;lat;lon;timestamp;temperature;humidity
43987;DHT22;29650;47.378;8.300;2022-08-19T00:01:12;18.90;99.90
43987;DHT22;29650;47.378;8.300;2022-08-19T00:03:38;19.00;99.90
43987;DHT22;29650;47.378;8.300;2022-08-19T00:06:05;19.00;99.90
43987;DHT22;29650;47.378;8.300;2022-08-19T00:08:33;19.10;99.90
43987;DHT22;29650;47.378;8.300;2022-08-19T00:11:00;19.10;99.90
43987;DHT22;29650;47.378;8.300;2022-08-19T00:13:27;19.00;99.90
43987;DHT22;29650;47.378;8.300;2022-08-19T00:15:54;19.00;99.90
43987;DHT22;29650;47.378;8.300;2022-08-19T00:18:21;19.00;99.90
43987;DHT22;29650;47.378;8.300;2022-08-19T00:20:47;19.00;99.90
43987;DHT22;29650;47.378;8.300;2022-08-19T00:23:14;19.00;99.90
43987;DHT22;29650;47.378;8.300;2022-08-19T00:25:42;19.00;99.90
43987;DHT22;29650;47.378;8.300;2022-08-19T00:28:09;19.00;99.90
43987;DHT22;29650;47.378;8.300;2022-08-19T00:30:36;19.00;99.90
43987;DHT22;29650;47.378;8.300;2022-08-19T00:33:03;18.90;99.90
43987;DHT22;29650;47.378;8.300;2022-08-19T00:35:29;18.90;99.90
43987;DHT22;29650;47.378;8.300;2022-08-19T00:37:56;18.90;99.90
43987;DHT22;29650;47.378;8.300;2022-08-19T00:40:23;19.00;99.90
43987;DHT22;29650;47.378;8.300;2022-08-19T00:42:52;18.90;99.90
43987;DHT22;29650;47.378;8.300;2022-08-19T00:45:20;19.00;99.90
43987;DHT22;29650;47.378;8.300;2022-08-19T00:47:48;19.10;99.90
43987;DHT22;29650;47.378;8.300;2022-08-19T00:50:15;19.10;99.90
43987;DHT22;29650;47.378;8.300;2022-08-19T00:52:43;19.10;99.90
43987;DHT22;29650;47.378;8.300;2022-08-19T00:55:13;19.10;99.90
43987;DHT22;29650;47.378;8.300;2022-08-19T00:57:40;19.10;99.90
43987;DHT22;29650;47.378;8.300;2022-08-19T01:00:13;19.10;99.90
43987;DHT22;29650;47.378;8.300;2022-08-19T01:02:40;19.10;99.90
43987;DHT22;29650;47.378;8.300;2022-08-19T01:05:08;19.10;99.90
43987;DHT22;29650;47.378;8.300;2022-08-19T01:07:35;19.20;99.90
43987;DHT22;29650;47.378;8.300;2022-08-19T01:10:04;19.10;99.90
43987;DHT22;29650;47.378;8.300;2022-08-19T01:12:31;19.10;99.90
43987;DHT22;29650;47.378;8.300;2022-08-19T01:14:59;19.10;99.90
43987;DHT22;29650;47.378;8.300;2022-08-19T01:17:27;19.10;99.90
43987;DHT22;29650;47.378;8.300;2022-08-19T01:19:54;19.10;99.90
43987;DHT22;29650;47.378;8.300;2022-08-19T01:22:25;19.10;99.90
43987;DHT22;29650;47.378;8.300;2022-08-19T01:24:53;19.10;99.90
43987;DHT22;29650;47.378;8.300;2022-08-19T01:27:20;19.10;99.90
43987;DHT22;29650;47.378;8.300;2022-08-19T01:29:46;19.10;99.90
43987;DHT22;29650;47.378;8.300;2022-08-19T01:32:14;19.10;99.90
43987;DHT22;29650;47.378;8.300;2022-08-19T01:34:41;19.00;99.90
43987;DHT22;29650;47.378;8.300;2022-08-19T01:37:13;19.10;99.90
43987;DHT22;29650;47.378;8.300;2022-08-19T01:39:41;19.10;99.90
43987;DHT22;29650;47.378;8.300;2022-08-19T01:42:08;19.10;99.90
43987;DHT22;29650;47.378;8.300;2022-08-19T01:44:37;19.10;99.90
43987;DHT22;29650;47.378;8.300;2022-08-19T01:47:04;18.90;99.90
43987;DHT22;29650;47.378;8.300;2022-08-19T01:49:31;19.00;99.90
43987;DHT22;29650;47.378;8.300;2022-08-19T01:51:58;19.00;99.90
43987;DHT22;29650;47.378;8.300;2022-08-19T01:54:25;19.10;99.90
43987;DHT22;29650;47.378;8.300;2022-08-19T01:56:54;19.00;99.90
43987;DHT22;29650;47.378;8.300;2022-08-19T01:59:22;19.10;99.90
43987;DHT22;29650;47.378;8.300;2022-08-19T02:01:50;19.10;99.90
43987;DHT22;29650;47.378;8.300;2022-08-19T02:04:16;19.00;99.90
43987;DHT22;29650;47.378;8.300;2022-08-19T02:06:43;19.00;99.90
43987;DHT22;29650;47.378;8.300;2022-08-19T02:09:10;19.00;99.90
43987;DHT22;29650;47.378;8.300;2022-08-19T02:11:36;19.10;99.90
43987;DHT22;29650;47.378;8.300;2022-08-19T02:14:06;19.10;99.90
43987;DHT22;29650;47.378;8.300;2022-08-19T02:16:34;19.10;99.90
43987;DHT22;29650;47.378;8.300;2022-08-19T02:19:01;19.10;99.90
43987;DHT22;29650;47.378;8.300;2022-08-19T02:21:28;19.10;99.90
43987;DHT22;29650;47.378;8.300;2022-08-19T02:23:55;19.00;99.90
43987;DHT22;29650;47.378;8.300;2022-08-19T02:26:22;19.10;99.90
43987;DHT22;29650;47.378;8.300;2022-08-19T02:28:48;19.00;99.90
43987;DHT22;29650;47.378;8.300;2022-08-19T02:31:17;18.90;99.90
43987;DHT22;29650;47.378;8.300;2022-08-19T02:33:44;19.00;99.90
43987;DHT22;29650;47.378;8.300;2022-08-19T02:36:12;19.00;99.90
43987;DHT22;29650;47.378;8.300;2022-08-19T02:38:39;18.90;99.90
43987;DHT22;29650;47.378;8.300;2022-08-19T02:41:06;19.00;99.90
43987;DHT22;29650;47.378;8.300;2022-08-19T02:43:35;19.00;99.90
43987;DHT22;29650;47.378;8.300;2022-08-19T02:46:02;19.00;99.90
43987;DHT22;29650;47.378;8.300;2022-08-19T02:48:38;19.00;99.90
43987;DHT22;29650;47.378;8.300;2022-08-19T02:51:05;19.00;99.90
43987;DHT22;29650;47.378;8.300;2022-08-19T02:53:32;19.00;99.90
43987;DHT22;29650;47.378;8.300;2022-08-19T02:55:58;19.00;99.90
43987;DHT22;29650;47.378;8.300;2022-08-19T02:58:25;19.10;99.90
43987;DHT22;29650;47.378;8.300;2022-08-19T03:00:53;19.10;99.90
43987;DHT22;29650;47.378;8.300;2022-08-19T03:03:20;19.10;99.90
43987;DHT22;29650;47.378;8.300;2022-08-19T03:05:49;19.00;99.90
43987;DHT22;29650;47.378;8.300;2022-08-19T03:08:16;19.10;99.90
43987;DHT22;29650;47.378;8.300;2022-08-19T03:10:43;19.10;99.90
43987;DHT22;29650;47.378;8.300;2022-08-19T03:13:12;19.10;99.90
43987;DHT22;29650;47.378;8.300;2022-08-19T03:15:39;19.10;99.90
43987;DHT22;29650;47.378;8.300;2022-08-19T03:18:06;19.00;99.90
43987;DHT22;29650;47.378;8.300;2022-08-19T03:20:33;18.90;99.90
43987;DHT22;29650;47.378;8.300;2022-08-19T03:23:01;18.90;99.90
43987;DHT22;29650;47.378;8.300;2022-08-19T03:25:27;18.80;99.90
43987;DHT22;29650;47.378;8.300;2022-08-19T03:27:54;18.80;99.90
43987;DHT22;29650;47.378;8.300;2022-08-19T03:30:21;18.70;99.90
43987;DHT22;29650;47.378;8.300;2022-08-19T03:32:47;18.80;99.90
43987;DHT22;29650;47.378;8.300;2022-08-19T03:35:14;18.80;99.90
43987;DHT22;29650;47.378;8.300;2022-08-19T03:37:41;18.80;99.90
43987;DHT22;29650;47.378;8.300;2022-08-19T03:40:09;18.90;99.90
43987;DHT22;29650;47.378;8.300;2022-08-19T03:42:36;18.80;99.90
43987;DHT22;29650;47.378;8.300;2022-08-19T03:45:04;19.00;99.90
43987;DHT22;29650;47.378;8.300;2022-08-19T03:47:30;18.90;99.90
43987;DHT22;29650;47.378;8.300;2022-08-19T03:49:57;19.00;99.90
43987;DHT22;29650;47.378;8.300;2022-08-19T03:52:24;19.00;99.90
43987;DHT22;29650;47.378;8.300;2022-08-19T03:54:50;19.00;99.90
43987;DHT22;29650;47.378;8.300;2022-08-19T03:57:18;18.90;99.90
43987;DHT22;29650;47.378;8.300;2022-08-19T03:59:45;18.90;99.90
43987;DHT22;29650;47.378;8.300;2022-08-19T04:02:12;18.90;99.90
43987;DHT22;29650;47.378;8.300;2022-08-19T04:04:41;18.90;99.90
43987;DHT22;29650;47.378;8.300;2022-08-19T04:07:08;18.90;99.90
43987;DHT22;29650;47.378;8.300;2022-08-19T04:09:35;18.80;99.90
43987;DHT22;29650;47.378;8.300;2022-08-19T04:12:03;18.90;99.90
43987;DHT22;29650;47.378;8.300;2022-08-19T04:14:32;18.90;99.90
43987;DHT22;29650;47.378;8.300;2022-08-19T04:17:00;18.80;99.90
43987;DHT22;29650;47.378;8.300;2022-08-19T04:19:29;18.70;99.90
43987;DHT22;29650;47.378;8.300;2022-08-19T04:21:56;18.60;99.90
43987;DHT22;29650;47.378;8.300;2022-08-19T04:24:24;18.60;99.90
43987;DHT22;29650;47.378;8.300;2022-08-19T04:26:50;18.70;99.90
43987;DHT22;29650;47.378;8.300;2022-08-19T04:29:18;18.80;99.90
43987;DHT22;29650;47.378;8.300;2022-08-19T04:31:48;18.80;99.90
43987;DHT22;29650;47.378;8.300;2022-08-19T04:34:16;18.80;99.90
43987;DHT22;29650;47.378;8.300;2022-08-19T04:36:43;18.80;99.90
43987;DHT22;29650;47.378;8.300;2022-08-19T04:39:11;18.80;99.90
43987;DHT22;29650;47.378;8.300;2022-08-19T04:41:38;18.80;99.90
43987;DHT22;29650;47.378;8.300;2022-08-19T04:44:22;18.90;99.90
43987;DHT22;29650;47.378;8.300;2022-08-19T04:46:51;19.10;99.90
43987;DHT22;29650;47.378;8.300;2022-08-19T04:49:18;19.10;99.90
43987;DHT22;29650;47.378;8.300;2022-08-19T04:51:47;19.20;99.90
43987;DHT22;29650;47.378;8.300;2022-08-19T04:54:14;19.20;99.90
43987;DHT22;29650;47.378;8.300;2022-08-19T04:56:41;19.10;99.90
43987;DHT22;29650;47.378;8.300;2022-08-19T04:59:09;19.00;99.90
43987;DHT22;29650;47.378;8.300;2022-08-19T05:01:36;19.00;99.90
43987;DHT22;29650;47.378;8.300;2022-08-19T05:04:05;19.00;99.90
43987;DHT22;29650;47.378;8.300;2022-08-19T05:06:32;18.80;99.90
43987;DHT22;29650;47.378;8.300;2022-08-19T05:08:59;18.90;99.90
43987;DHT22;29650;47.378;8.300;2022-08-19T05:11:28;18.90;99.90
43987;DHT22;29650;47.378;8.300;2022-08-19T05:13:55;18.80;99.90
43987;DHT22;29650;47.378;8.300;2022-08-19T05:16:22;18.60;99.90
43987;DHT22;29650;47.378;8.300;2022-08-19T05:18:49;18.70;99.90
43987;DHT22;29650;47.378;8.300;2022-08-19T05:21:35;18.80;99.90
43987;DHT22;29650;47.378;8.300;2022-08-19T05:24:21;19.00;99.90
43987;DHT22;29650;47.378;8.300;2022-08-19T05:26:48;19.00;99.90
43987;DHT22;29650;47.378;8.300;2022-08-19T05:29:20;19.00;99.90
43987;DHT22;29650;47.378;8.300;2022-08-19T05:31:48;19.10;99.90
43987;DHT22;29650;47.378;8.300;2022-08-19T05:34:15;19.10;99.90
43987;DHT22;29650;47.378;8.300;2022-08-19T05:36:44;19.10;99.90
43987;DHT22;29650;47.378;8.300;2022-08-19T05:39:12;19.10;99.90
43987;DHT22;29650;47.378;8.300;2022-08-19T05:41:40;19.10;99.90
43987;DHT22;29650;47.378;8.300;2022-08-19T05:44:07;19.10;99.90
43987;DHT22;29650;47.378;8.300;2022-08-19T05:46:34;19.10;99.90
43987;DHT22;29650;47.378;8.300;2022-08-19T05:49:02;19.00;99.90
43987;DHT22;29650;47.378;8.300;2022-08-19T05:51:30;19.00;99.90
43987;DHT22;29650;47.378;8.300;2022-08-19T05:53:59;19.00;99.90
43987;DHT22;29650;47.378;8.300;2022-08-19T05:56:26;19.10;99.90
43987;DHT22;29650;47.378;8.300;2022-08-19T05:58:52;19.10;99.90
43987;DHT22;29650;47.378;8.300;2022-08-19T06:01:20;19.10;99.90
43987;DHT22;29650;47.378;8.300;2022-08-19T06:03:47;19.00;99.90
43987;DHT22;29650;47.378;8.300;2022-08-19T06:06:14;19.10;99.90
43987;DHT22;29650;47.378;8.300;2022-08-19T06:08:41;19.20;99.90
43987;DHT22;29650;47.378;8.300;2022-08-19T06:11:16;19.20;99.90
43987;DHT22;29650;47.378;8.300;2022-08-19T06:13:43;19.20;99.90
43987;DHT22;29650;47.378;8.300;2022-08-19T06:16:12;19.20;99.90
43987;DHT22;29650;47.378;8.300;2022-08-19T06:18:46;19.20;99.90
43987;DHT22;29650;47.378;8.300;2022-08-19T06:21:12;19.10;99.90
43987;DHT22;29650;47.378;8.300;2022-08-19T06:23:39;19.00;99.90
43987;DHT22;29650;47.378;8.300;2022-08-19T06:26:06;19.20;99.90
43987;DHT22;29650;47.378;8.300;2022-08-19T06:28:38;19.10;99.90
43987;DHT22;29650;47.378;8.300;2022-08-19T06:31:08;19.00;99.90
43987;DHT22;29650;47.378;8.300;2022-08-19T06:33:34;19.00;99.90
43987;DHT22;29650;47.378;8.300;2022-08-19T06:36:01;19.20;99.90
43987;DHT22;29650;47.378;8.300;2022-08-19T06:38:28;19.30;99.90
43987;DHT22;29650;47.378;8.300;2022-08-19T06:40:59;19.40;99.90
43987;DHT22;29650;47.378;8.300;2022-08-19T06:43:26;19.40;99.90
43987;DHT22;29650;47.378;8.300;2022-08-19T06:45:54;19.30;99.90
43987;DHT22;29650;47.378;8.300;2022-08-19T06:48:20;19.20;99.90
43987;DHT22;29650;47.378;8.300;2022-08-19T06:50:47;19.30;99.90
43987;DHT22;29650;47.378;8.300;2022-08-19T06:53:16;19.30;99.90
43987;DHT22;29650;47.378;8.300;2022-08-19T06:55:44;19.30;99.90
43987;DHT22;29650;47.378;8.300;2022-08-19T06:58:11;19.40;99.90
43987;DHT22;29650;47.378;8.300;2022-08-19T07:00:38;19.40;99.90
43987;DHT22;29650;47.378;8.300;2022-08-19T07:03:07;19.40;99.90
43987;DHT22;29650;47.378;8.300;2022-08-19T07:05:37;19.30;99.90
43987;DHT22;29650;47.378;8.300;2022-08-19T07:08:04;19.40;99.90
43987;DHT22;29650;47.378;8.300;2022-08-19T07:10:31;19.30;99.90
43987;DHT22;29650;47.378;8.300;2022-08-19T07:12:59;19.40;99.90
43987;DHT22;29650;47.378;8.300;2022-08-19T07:15:26;19.30;99.90
43987;DHT22;29650;47.378;8.300;2022-08-19T07:17:52;19.40;99.90
43987;DHT22;29650;47.378;8.300;2022-08-19T07:20:20;19.50;99.90
43987;DHT22;29650;47.378;8.300;2022-08-19T07:22:47;19.20;99.90
43987;DHT22;29650;47.378;8.300;2022-08-19T07:25:14;19.30;99.90
43987;DHT22;29650;47.378;8.300;2022-08-19T07:27:43;19.50;99.90
43987;DHT22;29650;47.378;8.300;2022-08-19T07:30:09;19.30;99.90
43987;DHT22;29650;47.378;8.300;2022-08-19T07:32:37;19.20;99.90
43987;DHT22;29650;47.378;8.300;2022-08-19T07:35:04;19.30;99.90
43987;DHT22;29650;47.378;8.300;2022-08-19T07:37:33;19.30;99.90
43987;DHT22;29650;47.378;8.300;2022-08-19T07:40:00;19.30;99.90
43987;DHT22;29650;47.378;8.300;2022-08-19T07:42:27;19.30;99.90
43987;DHT22;29650;47.378;8.300;2022-08-19T07:44:54;19.40;99.90
43987;DHT22;29650;47.378;8.300;2022-08-19T07:47:21;19.40;99.90
43987;DHT22;29650;47.378;8.300;2022-08-19T07:49:48;19.50;99.90
43987;DHT22;29650;47.378;8.300;2022-08-19T07:52:14;19.40;99.90
43987;DHT22;29650;47.378;8.300;2022-08-19T07:54:43;19.20;99.90
43987;DHT22;29650;47.378;8.300;2022-08-19T07:57:09;19.10;99.90
43987;DHT22;29650;47.378;8.300;2022-08-19T07:59:36;19.20;99.90
43987;DHT22;29650;47.378;8.300;2022-08-19T08:02:03;19.30;99.90
43987;DHT22;29650;47.378;8.300;2022-08-19T08:04:30;19.30;99.90
43987;DHT22;29650;47.378;8.300;2022-08-19T08:07:14;19.30;99.90
43987;DHT22;29650;47.378;8.300;2022-08-19T08:10:00;19.40;99.90
43987;DHT22;29650;47.378;8.300;2022-08-19T08:12:27;19.30;99.90
43987;DHT22;29650;47.378;8.300;2022-08-19T08:14:56;19.30;99.90
43987;DHT22;29650;47.378;8.300;2022-08-19T08:17:24;19.20;99.90
43987;DHT22;29650;47.378;8.300;2022-08-19T08:19:51;19.20;99.90
43987;DHT22;29650;47.378;8.300;2022-08-19T08:22:19;19.20;99.90
43987;DHT22;29650;47.378;8.300;2022-08-19T08:25:03;19.20;99.90
43987;DHT22;29650;47.378;8.300;2022-08-19T08:27:30;19.00;99.90
43987;DHT22;29650;47.378;8.300;2022-08-19T08:29:57;19.10;99.90
43987;DHT22;29650;47.378;8.300;2022-08-19T08:32:24;19.10;99.90
43987;DHT22;29650;47.378;8.300;2022-08-19T08:34:51;19.30;99.90
43987;DHT22;29650;47.378;8.300;2022-08-19T08:37:18;19.30;99.90
43987;DHT22;29650;47.378;8.300;2022-08-19T08:39:46;19.30;99.90
43987;DHT22;29650;47.378;8.300;2022-08-19T08:42:15;19.20;99.90
43987;DHT22;29650;47.378;8.300;2022-08-19T08:44:47;19.20;99.90
43987;DHT22;29650;47.378;8.300;2022-08-19T08:47:17;19.20;99.90
43987;DHT22;29650;47.378;8.300;2022-08-19T08:49:46;19.30;99.90
43987;DHT22;29650;47.378;8.300;2022-08-19T08:52:15;19.40;99.90
43987;DHT22;29650;47.378;8.300;2022-08-19T08:54:46;19.50;99.90
43987;DHT22;29650;47.378;8.300;2022-08-19T08:57:13;19.50;99.90
43987;DHT22;29650;47.378;8.300;2022-08-19T08:59:43;19.40;99.90
43987;DHT22;29650;47.378;8.300;2022-08-19T09:02:10;19.50;99.90
43987;DHT22;29650;47.378;8.300;2022-08-19T09:04:37;19.60;99.90
43987;DHT22;29650;47.378;8.300;2022-08-19T09:07:17;19.50;99.90
43987;DHT22;29650;47.378;8.300;2022-08-19T09:09:46;19.50;99.90
43987;DHT22;29650;47.378;8.300;2022-08-19T09:12:14;19.50;99.90
43987;DHT22;29650;47.378;8.300;2022-08-19T09:14:45;19.60;99.90
43987;DHT22;29650;47.378;8.300;2022-08-19T09:17:16;19.70;99.90
43987;DHT22;29650;47.378;8.300;2022-08-19T09:19:47;19.70;99.90
43987;DHT22;29650;47.378;8.300;2022-08-19T09:22:14;19.60;99.90
43987;DHT22;29650;47.378;8.300;2022-08-19T09:24:41;19.70;99.90
43987;DHT22;29650;47.378;8.300;2022-08-19T09:27:08;19.60;99.90
43987;DHT22;29650;47.378;8.300;2022-08-19T09:29:35;19.60;99.90
43987;DHT22;29650;47.378;8.300;2022-08-19T09:32:03;19.60;99.90
43987;DHT22;29650;47.378;8.300;2022-08-19T09:34:31;19.60;99.90
43987;DHT22;29650;47.378;8.300;2022-08-19T09:36:58;19.60;99.90
43987;DHT22;29650;47.378;8.300;2022-08-19T09:39:25;19.60;99.90
43987;DHT22;29650;47.378;8.300;2022-08-19T09:41:52;19.70;99.90
43987;DHT22;29650;47.378;8.300;2022-08-19T09:44:19;19.70;99.90
43987;DHT22;29650;47.378;8.300;2022-08-19T09:46:46;19.70;99.90
43987;DHT22;29650;47.378;8.300;2022-08-19T09:49:14;19.80;99.90
43987;DHT22;29650;47.378;8.300;2022-08-19T09:51:42;19.80;99.90
43987;DHT22;29650;47.378;8.300;2022-08-19T09:54:09;19.80;99.90
43987;DHT22;29650;47.378;8.300;2022-08-19T09:56:35;19.80;99.90
43987;DHT22;29650;47.378;8.300;2022-08-19T09:59:02;19.90;99.90
43987;DHT22;29650;47.378;8.300;2022-08-19T10:01:30;19.80;99.90
43987;DHT22;29650;47.378;8.300;2022-08-19T10:03:58;19.70;99.90
43987;DHT22;29650;47.378;8.300;2022-08-19T10:06:27;19.80;99.90
43987;DHT22;29650;47.378;8.300;2022-08-19T10:08:58;19.80;99.90
43987;DHT22;29650;47.378;8.300;2022-08-19T10:11:24;19.80;99.90
43987;DHT22;29650;47.378;8.300;2022-08-19T10:13:51;19.70;99.90
43987;DHT22;29650;47.378;8.300;2022-08-19T10:16:20;19.80;99.90
43987;DHT22;29650;47.378;8.300;2022-08-19T10:18:47;19.80;99.90
43987;DHT22;29650;47.378;8.300;2022-08-19T10:21:15;19.90;99.90
43987;DHT22;29650;47.378;8.300;2022-08-19T10:23:44;19.90;99.90
43987;DHT22;29650;47.378;8.300;2022-08-19T10:26:12;19.80;99.90
43987;DHT22;29650;47.378;8.300;2022-08-19T10:28:39;19.90;99.90
43987;DHT22;29650;47.378;8.300;2022-08-19T10:31:06;20.00;99.90
43987;DHT22;29650;47.378;8.300;2022-08-19T10:33:34;20.00;99.90
43987;DHT22;29650;47.378;8.300;2022-08-19T10:36:01;19.90;99.90
43987;DHT22;29650;47.378;8.300;2022-08-19T10:38:28;19.90;99.90
43987;DHT22;29650;47.378;8.300;2022-08-19T10:40:56;19.90;99.90
43987;DHT22;29650;47.378;8.300;2022-08-19T10:43:23;20.00;99.90
43987;DHT22;29650;47.378;8.300;2022-08-19T10:45:54;20.00;99.90
43987;DHT22;29650;47.378;8.300;2022-08-19T10:48:23;20.10;99.90
43987;DHT22;29650;47.378;8.300;2022-08-19T10:50:50;20.20;99.90
43987;DHT22;29650;47.378;8.300;2022-08-19T10:53:34;20.10;99.90
43987;DHT22;29650;47.378;8.300;2022-08-19T10:56:02;20.10;99.90
43987;DHT22;29650;47.378;8.300;2022-08-19T10:58:47;20.10;99.90
43987;DHT22;29650;47.378;8.300;2022-08-19T11:01:14;20.20;99.90
43987;DHT22;29650;47.378;8.300;2022-08-19T11:03:40;20.20;99.90
43987;DHT22;29650;47.378;8.300;2022-08-19T11:06:08;20.20;99.90
43987;DHT22;29650;47.378;8.300;2022-08-19T11:08:35;20.30;99.90
43987;DHT22;29650;47.378;8.300;2022-08-19T11:11:04;20.40;99.90
43987;DHT22;29650;47.378;8.300;2022-08-19T11:13:32;20.40;99.90
43987;DHT22;29650;47.378;8.300;2022-08-19T11:16:01;20.40;99.90
43987;DHT22;29650;47.378;8.300;2022-08-19T11:18:27;20.30;99.90
43987;DHT22;29650;47.378;8.300;2022-08-19T11:20:54;20.10;99.90
43987;DHT22;29650;47.378;8.300;2022-08-19T11:23:21;20.00;99.90
43987;DHT22;29650;47.378;8.300;2022-08-19T11:25:47;20.10;99.90
43987;DHT22;29650;47.378;8.300;2022-08-19T11:28:16;20.00;99.90
43987;DHT22;29650;47.378;8.300;2022-08-19T11:30:43;20.10;99.90
43987;DHT22;29650;47.378;8.300;2022-08-19T11:33:10;20.20;99.90
43987;DHT22;29650;47.378;8.300;2022-08-19T11:35:38;20.00;99.90
43987;DHT22;29650;47.378;8.300;2022-08-19T11:38:05;20.10;99.90
43987;DHT22;29650;47.378;8.300;2022-08-19T11:40:31;20.20;99.90
43987;DHT22;29650;47.378;8.300;2022-08-19T11:42:59;20.10;99.90
43987;DHT22;29650;47.378;8.300;2022-08-19T11:45:27;20.20;99.90
43987;DHT22;29650;47.378;8.300;2022-08-19T11:47:54;20.30;99.90
43987;DHT22;29650;47.378;8.300;2022-08-19T11:50:21;20.30;99.90
43987;DHT22;29650;47.378;8.300;2022-08-19T11:52:48;20.20;99.90
43987;DHT22;29650;47.378;8.300;2022-08-19T11:55:15;20.20;99.90
43987;DHT22;29650;47.378;8.300;2022-08-19T11:57:42;20.10;99.90
43987;DHT22;29650;47.378;8.300;2022-08-19T12:00:09;20.10;99.90
43987;DHT22;29650;47.378;8.300;2022-08-19T12:02:38;20.00;99.90
43987;DHT22;29650;47.378;8.300;2022-08-19T12:05:06;19.90;99.90
43987;DHT22;29650;47.378;8.300;2022-08-19T12:07:32;19.90;99.90
43987;DHT22;29650;47.378;8.300;2022-08-19T12:09:59;19.80;99.90
43987;DHT22;29650;47.378;8.300;2022-08-19T12:12:26;19.90;99.90
43987;DHT22;29650;47.378;8.300;2022-08-19T12:14:53;19.90;99.90
43987;DHT22;29650;47.378;8.300;2022-08-19T12:17:23;19.70;99.90
43987;DHT22;29650;47.378;8.300;2022-08-19T12:19:52;19.80;99.90
43987;DHT22;29650;47.378;8.300;2022-08-19T12:22:19;19.80;99.90
43987;DHT22;29650;47.378;8.300;2022-08-19T12:24:46;19.80;99.90
43987;DHT22;29650;47.378;8.300;2022-08-19T12:27:15;19.80;99.90
43987;DHT22;29650;47.378;8.300;2022-08-19T12:29:42;19.80;99.90
43987;DHT22;29650;47.378;8.300;2022-08-19T12:32:08;19.80;99.90
43987;DHT22;29650;47.378;8.300;2022-08-19T12:34:35;19.80;99.90
43987;DHT22;29650;47.378;8.300;2022-08-19T12:37:04;19.80;99.90
43987;DHT22;29650;47.378;8.300;2022-08-19T12:39:33;19.90;99.90
43987;DHT22;29650;47.378;8.300;2022-08-19T12:42:00;20.00;99.90
43987;DHT22;29650;47.378;8.300;2022-08-19T12:44:27;20.00;99.90
43987;DHT22;29650;47.378;8.300;2022-08-19T12:46:54;20.00;99.90
43987;DHT22;29650;47.378;8.300;2022-08-19T12:49:21;20.10;99.90
43987;DHT22;29650;47.378;8.300;2022-08-19T12:51:47;20.10;99.90
43987;DHT22;29650;47.378;8.300;2022-08-19T12:54:15;20.10;99.90
43987;DHT22;29650;47.378;8.300;2022-08-19T12:56:43;20.20;99.90
43987;DHT22;29650;47.378;8.300;2022-08-19T12:59:10;20.10;99.90
43987;DHT22;29650;47.378;8.300;2022-08-19T13:01:37;20.20;99.90
43987;DHT22;29650;47.378;8.300;2022-08-19T13:04:03;20.10;99.90
43987;DHT22;29650;47.378;8.300;2022-08-19T13:06:30;20.20;99.90
43987;DHT22;29650;47.378;8.300;2022-08-19T13:08:57;20.30;99.90
43987;DHT22;29650;47.378;8.300;2022-08-19T13:11:25;20.40;99.90
43987;DHT22;29650;47.378;8.300;2022-08-19T13:13:52;20.40;99.90
43987;DHT22;29650;47.378;8.300;2022-08-19T13:16:20;20.50;99.90
43987;DHT22;29650;47.378;8.300;2022-08-19T13:18:47;20.40;99.90
43987;DHT22;29650;47.378;8.300;2022-08-19T13:21:14;20.50;99.90
43987;DHT22;29650;47.378;8.300;2022-08-19T13:23:41;20.50;99.90
43987;DHT22;29650;47.378;8.300;2022-08-19T13:26:09;20.50;99.90
43987;DHT22;29650;47.378;8.300;2022-08-19T13:28:38;20.40;99.90
43987;DHT22;29650;47.378;8.300;2022-08-19T13:31:24;20.50;99.90
43987;DHT22;29650;47.378;8.300;2022-08-19T13:34:08;20.60;99.90
43987;DHT22;29650;47.378;8.300;2022-08-19T13:36:35;20.70;99.90
43987;DHT22;29650;47.378;8.300;2022-08-19T13:39:02;20.60;99.90
43987;DHT22;29650;47.378;8.300;2022-08-19T13:41:29;20.70;99.90
43987;DHT22;29650;47.378;8.300;2022-08-19T13:43:57;20.70;99.90
43987;DHT22;29650;47.378;8.300;2022-08-19T13:46:24;20.60;99.90
43987;DHT22;29650;47.378;8.300;2022-08-19T13:48:51;20.60;99.90
43987;DHT22;29650;47.378;8.300;2022-08-19T13:51:18;20.60;99.90
43987;DHT22;29650;47.378;8.300;2022-08-19T13:53:45;20.60;99.90
43987;DHT22;29650;47.378;8.300;2022-08-19T13:56:12;20.50;99.90
43987;DHT22;29650;47.378;8.300;2022-08-19T13:58:39;20.60;99.90
43987;DHT22;29650;47.378;8.300;2022-08-19T14:01:07;20.60;99.90
43987;DHT22;29650;47.378;8.300;2022-08-19T14:03:34;20.70;99.90
43987;DHT22;29650;47.378;8.300;2022-08-19T14:06:01;20.70;99.90
43987;DHT22;29650;47.378;8.300;2022-08-19T14:08:28;20.70;99.90
43987;DHT22;29650;47.378;8.300;2022-08-19T14:10:59;20.70;99.90
43987;DHT22;29650;47.378;8.300;2022-08-19T14:13:26;20.80;99.90
43987;DHT22;29650;47.378;8.300;2022-08-19T14:15:53;20.90;99.90
43987;DHT22;29650;47.378;8.300;2022-08-19T14:18:21;20.90;99.90
43987;DHT22;29650;47.378;8.300;2022-08-19T14:20:48;20.90;99.90
43987;DHT22;29650;47.378;8.300;2022-08-19T14:23:14;20.90;99.90
43987;DHT22;29650;47.378;8.300;2022-08-19T14:25:42;20.90;99.90
43987;DHT22;29650;47.378;8.300;2022-08-19T14:28:08;21.00;99.90
43987;DHT22;29650;47.378;8.300;2022-08-19T14:30:36;21.00;99.90
43987;DHT22;29650;47.378;8.300;2022-08-19T14:33:03;21.10;99.90
43987;DHT22;29650;47.378;8.300;2022-08-19T14:35:32;21.20;99.90
43987;DHT22;29650;47.378;8.300;2022-08-19T14:38:00;21.10;99.90
43987;DHT22;29650;47.378;8.300;2022-08-19T14:40:27;21.10;99.90
43987;DHT22;29650;47.378;8.300;2022-08-19T14:42:55;21.10;99.90
43987;DHT22;29650;47.378;8.300;2022-08-19T14:45:25;21.00;99.90
43987;DHT22;29650;47.378;8.300;2022-08-19T14:47:52;21.00;99.90
43987;DHT22;29650;47.378;8.300;2022-08-19T14:50:19;21.10;99.90
43987;DHT22;29650;47.378;8.300;2022-08-19T14:52:47;21.00;99.90
43987;DHT22;29650;47.378;8.300;2022-08-19T14:55:14;21.10;99.90
43987;DHT22;29650;47.378;8.300;2022-08-19T14:57:41;21.10;99.90
43987;DHT22;29650;47.378;8.300;2022-08-19T15:00:08;20.90;99.90
43987;DHT22;29650;47.378;8.300;2022-08-19T15:02:37;20.90;99.90
43987;DHT22;29650;47.378;8.300;2022-08-19T15:05:04;20.80;99.90
43987;DHT22;29650;47.378;8.300;2022-08-19T15:07:31;20.90;99.90
43987;DHT22;29650;47.378;8.300;2022-08-19T15:09:59;20.70;99.90
43987;DHT22;29650;47.378;8.300;2022-08-19T15:12:26;20.80;99.90
43987;DHT22;29650;47.378;8.300;2022-08-19T15:14:53;20.80;99.90
43987;DHT22;29650;47.378;8.300;2022-08-19T15:17:20;20.90;99.90
43987;DHT22;29650;47.378;8.300;2022-08-19T15:19:47;21.00;99.90
43987;DHT22;29650;47.378;8.300;2022-08-19T15:22:14;21.10;99.90
43987;DHT22;29650;47.378;8.300;2022-08-19T15:24:41;21.10;99.90
43987;DHT22;29650;47.378;8.300;2022-08-19T15:27:12;21.20;99.90
43987;DHT22;29650;47.378;8.300;2022-08-19T15:29:38;21.30;99.90
43987;DHT22;29650;47.378;8.300;2022-08-19T15:32:05;21.30;99.90
43987;DHT22;29650;47.378;8.300;2022-08-19T15:34:33;21.10;99.90